Terminal Aerodrome Forecast
Issued by NWS Topeka, KS

Home | Current Version | Previous Version | Text Only | Print | Product List | Glossary Off
Versions: 1 2 3 4 5 6 7 8 9 10 11 12 13 14 15 16 17

000
FTUS43 KTOP 010520
TAFTOP
TAF
KTOP 010520Z 0106/0206 27005KT P6SM SCT020 BKN040
     FM011500 30010KT P6SM SCT015 BKN020
     FM012000 34011KT P6SM SCT015 BKN025
     FM020000 35007KT P6SM BKN035=

USA.gov is the U.S. government's official web portal to all federal, state and local government web resources and services.